Time;durP1;ratioP1;P1;durP2;ratioP2;P2;SDS_P1;SDS_P2;PMS_P1;PMS_P2;Temp;Humidity;BMP_temperature;BMP_pressure;BME280_temperature;BME280_humidity;BME280_pressure;Samples;Min_cycle;Max_cycle;Signal;HPM_P1;HPM_P2
2021/09/19 00:02:02;;;;;;;7.70;3.20;;;;;;;13.38;75.96;98644.34;116602;1199;22386;-58
2021/09/19 00:04:30;;;;;;;3.50;2.20;;;;;;;13.40;76.00;98643.11;116506;1201;138152;-59
2021/09/19 00:06:59;;;;;;;4.50;3.10;;;;;;;13.39;75.91;98642.41;116523;1199;23433;-59
2021/09/19 00:09:28;;;;;;;3.30;2.00;;;;;;;13.38;75.67;98638.70;116616;1201;22459;-59
2021/09/19 00:11:57;;;;;;;4.00;2.30;;;;;;;13.37;75.68;98640.30;116526;1201;137863;-59
2021/09/19 00:14:26;;;;;;;3.60;2.20;;;;;;;13.37;75.57;98638.72;116539;1201;22241;-59
2021/09/19 00:16:55;;;;;;;4.80;2.50;;;;;;;13.35;75.50;98638.36;116513;1201;138016;-58
2021/09/19 00:19:26;;;;;;;5.10;2.30;;;;;;;13.35;75.22;98637.42;116554;1201;22394;-59
2021/09/19 00:21:54;;;;;;;6.10;2.60;;;;;;;13.36;75.29;98638.63;116627;1201;22352;-59
2021/09/19 00:24:23;;;;;;;5.40;2.50;;;;;;;13.35;75.19;98640.16;116441;1201;137719;-58
2021/09/19 00:27:11;;;;;;;4.40;2.80;;;;;;;13.35;75.01;98642.25;113006;1201;23844;-58
2021/09/19 00:29:59;;;;;;;5.40;2.90;;;;;;;13.32;75.11;98642.23;112020;1202;138274;-59
2021/09/19 00:32:27;;;;;;;7.50;3.70;;;;;;;13.32;75.01;98640.70;112327;1195;22578;-58
2021/09/19 00:34:55;;;;;;;4.50;2.70;;;;;;;13.31;74.92;98644.87;112282;1201;138863;-57
2021/09/19 00:37:23;;;;;;;7.50;2.80;;;;;;;13.30;74.81;98645.21;116369;1202;22374;-58
2021/09/19 00:39:52;;;;;;;5.40;3.10;;;;;;;13.29;74.80;98648.39;116542;1201;22316;-58
2021/09/19 00:42:20;;;;;;;3.50;2.60;;;;;;;13.30;74.89;98646.69;116509;1201;137441;-58
2021/09/19 00:45:04;;;;;;;4.80;2.70;;;;;;;13.31;75.07;98645.97;116574;1201;23453;-58
2021/09/19 00:47:32;;;;;;;5.20;2.60;;;;;;;13.31;75.11;98652.70;116441;1201;137630;-58
2021/09/19 00:50:00;;;;;;;5.10;2.60;;;;;;;13.31;75.17;98650.89;116604;1201;23322;-57
2021/09/19 00:52:28;;;;;;;5.80;2.40;;;;;;;13.31;75.19;98652.09;116453;1201;137834;-58
2021/09/19 00:54:59;;;;;;;4.70;2.10;;;;;;;13.31;75.43;98651.70;116627;1201;23170;-57
2021/09/19 00:57:27;;;;;;;4.40;2.30;;;;;;;13.32;75.36;98653.45;112496;1201;22914;-57
2021/09/19 01:00:12;;;;;;;6.90;1.90;;;;;;;13.31;75.33;98651.27;116491;1201;139149;-57
2021/09/19 01:02:41;;;;;;;3.20;2.00;;;;;;;13.31;75.51;98652.60;116585;1201;22331;-57
2021/09/19 01:05:12;;;;;;;3.60;1.90;;;;;;;13.30;75.57;98658.29;116477;1201;138272;-57
2021/09/19 01:07:40;;;;;;;3.40;2.10;;;;;;;13.29;75.69;98657.20;116657;1201;22316;-58
2021/09/19 01:10:19;;;;;;;6.80;2.00;;;;;;;13.27;75.88;98654.95;116414;1201;138919;-57
2021/09/19 01:13:07;;;;;;;3.90;2.30;;;;;;;13.27;76.03;98660.05;116534;1201;22353;-57
2021/09/19 01:15:37;;;;;;;1.90;1.70;;;;;;;13.26;76.08;98660.78;116556;1201;22279;-57
2021/09/19 01:18:17;;;;;;;3.40;1.90;;;;;;;13.24;76.38;98658.23;116485;1201;138245;-57
2021/09/19 01:20:46;;;;;;;4.80;1.90;;;;;;;13.23;76.61;98662.08;116514;1201;22153;-57
2021/09/19 01:23:34;;;;;;;4.10;2.10;;;;;;;13.22;76.94;98658.81;116488;1201;137841;-58
2021/09/19 01:26:04;;;;;;;2.20;2.00;;;;;;;13.22;77.05;98653.79;116313;1201;22944;-57
2021/09/19 01:28:33;;;;;;;3.00;2.20;;;;;;;13.21;77.11;98652.70;116461;1201;137815;-58
2021/09/19 01:31:15;;;;;;;2.40;2.10;;;;;;;13.18;77.26;98651.20;116572;1201;22325;-58
2021/09/19 01:34:03;;;;;;;4.60;2.00;;;;;;;13.16;77.45;98653.96;116613;1201;23096;-58
2021/09/19 01:36:51;;;;;;;3.80;2.00;;;;;;;13.13;77.69;98654.15;116503;1201;137980;-58
2021/09/19 01:39:19;;;;;;;3.30;2.10;;;;;;;13.10;77.83;98649.27;116564;1200;22340;-58
2021/09/19 01:41:50;;;;;;;3.40;2.50;;;;;;;13.06;77.80;98646.09;116528;1201;138512;-58
2021/09/19 01:44:19;;;;;;;4.00;2.90;;;;;;;13.04;77.93;98645.79;116615;1197;22332;-57
2021/09/19 01:46:47;;;;;;;4.30;2.40;;;;;;;13.02;77.99;98642.81;116460;1201;138874;-58
2021/09/19 01:49:15;;;;;;;6.10;2.70;;;;;;;13.00;78.14;98643.66;116622;1201;22353;-58
2021/09/19 01:51:47;;;;;;;4.40;2.50;;;;;;;13.00;78.33;98646.13;116523;1201;22344;-57
2021/09/19 01:54:16;;;;;;;5.10;2.80;;;;;;;12.96;78.49;98639.95;116430;1201;137842;-57
2021/09/19 01:56:51;;;;;;;4.80;2.90;;;;;;;12.91;78.70;98638.16;113592;1190;22453;-57
2021/09/19 01:59:20;;;;;;;3.70;2.40;;;;;;;12.86;78.96;98634.52;112301;1180;137667;-57
2021/09/19 02:01:49;;;;;;;5.50;2.80;;;;;;;12.80;79.12;98635.59;116435;1201;22437;-58
2021/09/19 02:04:39;;;;;;;9.20;2.60;;;;;;;12.75;79.37;98639.03;116450;1201;140174;-58
2021/09/19 02:07:08;;;;;;;4.90;2.90;;;;;;;12.72;79.58;98640.10;116496;1201;22760;-58
2021/09/19 02:09:37;;;;;;;8.60;2.90;;;;;;;12.70;79.91;98641.65;116597;1202;22300;-58
2021/09/19 02:12:06;;;;;;;6.00;2.80;;;;;;;12.68;80.10;98640.29;116449;1201;138500;-58
2021/09/19 02:14:35;;;;;;;9.50;3.40;;;;;;;12.66;80.27;98636.10;116579;1201;22314;-58
2021/09/19 02:17:03;;;;;;;5.10;3.00;;;;;;;12.65;80.54;98634.80;116448;1201;139225;-58
2021/09/19 02:19:51;;;;;;;2.80;2.50;;;;;;;12.65;80.62;98628.36;116632;1201;22346;-57
2021/09/19 02:22:20;;;;;;;5.90;2.90;;;;;;;12.65;80.76;98625.02;116570;1201;22281;-58
2021/09/19 02:24:52;;;;;;;5.50;3.40;;;;;;;12.65;80.89;98634.41;116424;1201;137783;-58
2021/09/19 02:27:20;;;;;;;4.20;2.70;;;;;;;12.65;80.97;98635.63;116641;1200;22297;-58
2021/09/19 02:30:04;;;;;;;3.50;2.60;;;;;;;12.65;80.86;98639.55;116501;1201;138702;-58
2021/09/19 02:32:33;;;;;;;6.10;3.00;;;;;;;12.64;80.90;98641.37;116646;1201;22402;-58
2021/09/19 02:35:02;;;;;;;4.50;2.80;;;;;;;12.63;80.97;98640.77;116498;1201;138932;-58
2021/09/19 02:37:31;;;;;;;8.00;2.50;;;;;;;12.64;81.06;98641.05;116605;1201;22437;-58
2021/09/19 02:40:00;;;;;;;6.80;2.90;;;;;;;12.65;81.08;98640.48;116631;1201;22326;-58
2021/09/19 02:42:28;;;;;;;3.10;2.70;;;;;;;12.66;81.26;98637.25;116442;1201;137711;-58
2021/09/19 02:45:14;;;;;;;2.80;2.50;;;;;;;12.66;81.23;98637.30;116614;1201;23385;-58
2021/09/19 02:47:42;;;;;;;9.80;3.10;;;;;;;12.66;81.22;98635.44;116513;1201;137674;-58
2021/09/19 02:50:13;;;;;;;4.80;2.60;;;;;;;12.67;81.48;98631.44;116540;1201;23489;-58
2021/09/19 02:52:41;;;;;;;5.50;3.10;;;;;;;12.66;81.30;98627.30;116492;1201;138205;-58
2021/09/19 02:55:10;;;;;;;6.10;2.70;;;;;;;12.67;81.35;98635.92;116559;1201;22434;-58
2021/09/19 02:57:38;;;;;;;5.30;2.80;;;;;;;12.65;81.55;98629.72;116597;1201;22334;-58
2021/09/19 03:00:12;;;;;;;5.30;2.60;;;;;;;12.65;81.73;98630.59;116481;1201;137642;-58
2021/09/19 03:02:40;;;;;;;4.10;3.20;;;;;;;12.64;81.86;98628.58;116573;1201;22373;-58
2021/09/19 03:05:10;;;;;;;3.60;2.90;;;;;;;12.63;81.96;98629.09;116493;1201;137851;-57
2021/09/19 03:07:39;;;;;;;3.10;2.80;;;;;;;12.61;81.96;98625.22;116606;1201;22358;-58
2021/09/19 03:10:07;;;;;;;3.00;2.70;;;;;;;12.59;82.02;98628.46;116635;1201;23116;-58
2021/09/19 03:12:35;;;;;;;5.40;2.80;;;;;;;12.58;82.15;98629.52;116475;1195;137845;-58
2021/09/19 03:15:05;;;;;;;5.00;3.30;;;;;;;12.58;82.13;98623.45;116603;1201;23382;-58
2021/09/19 03:17:33;;;;;;;7.20;2.90;;;;;;;12.56;82.09;98630.20;116488;1201;138146;-57
2021/09/19 03:20:08;;;;;;;4.10;2.60;;;;;;;12.55;82.09;98630.88;116563;1193;22283;-57
2021/09/19 03:22:36;;;;;;;3.80;3.40;;;;;;;12.55;82.25;98634.38;116504;1201;137974;-57
2021/09/19 03:25:13;;;;;;;9.40;3.30;;;;;;;12.55;82.17;98634.83;116520;1201;22426;-57
2021/09/19 03:27:42;;;;;;;3.80;2.90;;;;;;;12.55;82.16;98633.38;116603;1201;22452;-57
2021/09/19 03:30:13;;;;;;;7.20;2.70;;;;;;;12.55;82.26;98635.46;116514;1201;137699;-57
2021/09/19 03:32:44;;;;;;;3.30;2.30;;;;;;;12.55;82.44;98639.29;116623;1201;22240;-57
2021/09/19 03:35:12;;;;;;;4.60;3.40;;;;;;;12.56;82.39;98640.75;116451;1200;137859;-57
2021/09/19 03:37:41;;;;;;;7.90;2.90;;;;;;;12.56;82.42;98638.27;116575;1201;22402;-58
2021/09/19 03:40:10;;;;;;;3.00;2.30;;;;;;;12.57;82.36;98645.75;116609;1201;22366;-57
2021/09/19 03:42:38;;;;;;;7.70;2.90;;;;;;;12.58;82.37;98641.70;116519;1201;138856;-57
2021/09/19 03:45:10;;;;;;;5.40;2.50;;;;;;;12.59;82.38;98639.40;116557;1200;22145;-57
2021/09/19 03:47:38;;;;;;;4.90;2.70;;;;;;;12.60;82.33;98637.30;116432;1201;138274;-58
2021/09/19 03:50:07;;;;;;;4.90;2.50;;;;;;;12.60;82.23;98636.00;116616;1201;22321;-58
2021/09/19 03:52:36;;;;;;;3.00;2.60;;;;;;;12.59;82.27;98637.98;116534;1196;138504;-58
2021/09/19 03:55:05;;;;;;;5.50;2.40;;;;;;;12.58;82.22;98636.45;116560;1201;22398;-58
2021/09/19 03:57:33;;;;;;;8.50;3.10;;;;;;;12.58;82.14;98633.83;116621;1200;22347;-57
2021/09/19 04:00:08;;;;;;;4.60;2.50;;;;;;;12.57;81.96;98636.85;116454;1201;138323;-58
2021/09/19 04:02:40;;;;;;;4.80;2.60;;;;;;;12.55;82.10;98637.15;116511;1202;22518;-57
2021/09/19 04:05:09;;;;;;;4.80;2.90;;;;;;;12.55;82.09;98637.40;116490;1201;138425;-54
2021/09/19 04:07:38;;;;;;;3.90;2.50;;;;;;;12.54;82.08;98636.48;116563;1201;22369;-58
2021/09/19 04:10:07;;;;;;;7.70;3.60;;;;;;;12.53;82.10;98635.79;116619;1201;22392;-57
2021/09/19 04:12:38;;;;;;;7.10;2.40;;;;;;;12.51;82.34;98636.30;116472;1201;139562;-57
2021/09/19 04:15:08;;;;;;;6.40;2.70;;;;;;;12.49;82.32;98639.42;116568;1201;23021;-58
2021/09/19 04:17:55;;;;;;;4.20;2.70;;;;;;;12.47;82.25;98639.94;116490;1201;141454;-58
2021/09/19 04:20:33;;;;;;;7.30;3.00;;;;;;;12.47;82.43;98641.15;116581;1186;22343;-58
2021/09/19 04:23:22;;;;;;;9.00;3.20;;;;;;;12.46;82.40;98649.56;116497;1201;139562;-57
2021/09/19 04:25:51;;;;;;;8.20;4.10;;;;;;;12.46;82.66;98651.15;116606;1201;22252;-57
2021/09/19 04:28:22;;;;;;;5.00;3.00;;;;;;;12.46;82.72;98651.36;116667;1199;22290;-58
2021/09/19 04:30:51;;;;;;;5.20;2.90;;;;;;;12.46;82.88;98645.19;116477;1201;139441;-58
2021/09/19 04:33:39;;;;;;;3.90;3.00;;;;;;;12.46;83.08;98640.27;116661;1200;22282;-58
2021/09/19 04:36:08;;;;;;;5.80;3.10;;;;;;;12.46;83.17;98633.23;114696;1201;138155;-57
2021/09/19 04:38:37;;;;;;;4.50;3.10;;;;;;;12.49;82.92;98632.22;112299;1201;24079;-57
2021/09/19 04:41:05;;;;;;;7.30;3.60;;;;;;;12.49;82.93;98630.95;116433;1201;138585;-57
2021/09/19 04:43:33;;;;;;;4.80;2.60;;;;;;;12.50;82.89;98636.24;116616;1201;22993;-57
2021/09/19 04:46:01;;;;;;;8.40;3.00;;;;;;;12.50;82.74;98636.95;116570;1187;22951;-57
2021/09/19 04:48:29;;;;;;;6.20;3.00;;;;;;;12.50;83.01;98635.96;116469;1201;137746;-58
2021/09/19 04:50:57;;;;;;;7.40;3.50;;;;;;;12.52;82.95;98636.39;116581;1202;22262;-58
2021/09/19 04:53:25;;;;;;;6.00;3.40;;;;;;;12.53;83.16;98640.15;116403;1201;138389;-58
2021/09/19 04:55:53;;;;;;;5.60;3.00;;;;;;;12.54;83.35;98643.59;116590;1201;22833;-58
2021/09/19 04:58:21;;;;;;;4.60;3.20;;;;;;;12.55;83.41;98641.32;116527;1201;22311;-58
2021/09/19 05:00:49;;;;;;;5.20;3.40;;;;;;;12.56;83.48;98640.26;116503;1201;138719;-58
2021/09/19 05:03:18;;;;;;;3.30;2.50;;;;;;;12.53;83.45;98638.62;116585;1201;22924;-58
2021/09/19 05:06:50;;;;;;;5.60;2.70;;;;;;;12.52;83.60;98641.30;110737;1210;546729;-59
2021/09/19 05:09:18;;;;;;;3.60;2.80;;;;;;;12.51;83.57;98638.64;111971;1203;23143;-57
2021/09/19 05:12:06;;;;;;;3.70;2.70;;;;;;;12.52;83.44;98634.69;111935;1204;136842;-57
2021/09/19 05:14:36;;;;;;;4.60;3.00;;;;;;;12.53;83.51;98640.00;116101;1203;23057;-58
2021/09/19 05:17:21;;;;;;;3.00;2.10;;;;;;;12.52;83.31;98636.98;116113;1204;137094;-58
2021/09/19 05:19:54;;;;;;;3.60;1.70;;;;;;;12.51;83.19;98640.73;116210;1204;23509;-57
2021/09/19 05:22:27;;;;;;;3.40;1.80;;;;;;;12.48;82.59;98638.45;116183;1204;22310;-58
2021/09/19 05:24:56;;;;;;;4.10;2.40;;;;;;;12.43;82.31;98639.21;116078;1204;136777;-57
2021/09/19 05:27:24;;;;;;;5.50;1.70;;;;;;;12.40;82.35;98641.84;116174;1203;23431;-58
2021/09/19 05:29:52;;;;;;;1.90;1.70;;;;;;;12.36;82.05;98641.60;116097;1204;138203;-58
2021/09/19 05:32:21;;;;;;;2.20;1.50;;;;;;;12.36;82.33;98646.20;116239;1203;22398;-58
2021/09/19 05:34:49;;;;;;;2.80;1.80;;;;;;;12.38;82.40;98648.42;116040;1203;137456;-58
2021/09/19 05:37:17;;;;;;;6.80;2.50;;;;;;;12.38;82.42;98647.97;116210;1203;23349;-58
2021/09/19 05:39:46;;;;;;;11.80;4.50;;;;;;;12.42;82.54;98644.20;115998;1204;22251;-58
2021/09/19 05:42:14;;;;;;;7.00;4.60;;;;;;;12.42;82.31;98647.96;116032;1204;137477;-58
2021/09/19 05:44:42;;;;;;;7.20;4.10;;;;;;;12.40;82.01;98643.70;116061;1204;22815;-58
2021/09/19 05:47:10;;;;;;;5.60;3.70;;;;;;;12.38;82.14;98643.11;112516;1205;138642;-60
2021/09/19 05:49:38;;;;;;;5.60;3.30;;;;;;;12.36;82.21;98636.73;111924;1205;24034;-60
2021/09/19 05:52:26;;;;;;;4.60;3.20;;;;;;;12.38;82.39;98642.67;116179;1204;22385;-60
2021/09/19 05:54:54;;;;;;;6.00;3.60;;;;;;;12.41;82.39;98647.82;116030;1204;137976;-60
2021/09/19 05:57:22;;;;;;;7.00;4.60;;;;;;;12.44;82.55;98648.33;116154;1205;22385;-60
2021/09/19 05:59:50;;;;;;;9.60;3.60;;;;;;;12.47;82.45;98644.42;115996;1203;138347;-58
2021/09/19 06:02:18;;;;;;;5.00;3.10;;;;;;;12.47;82.34;98641.57;116141;1204;22384;-58
2021/09/19 06:04:50;;;;;;;7.20;3.60;;;;;;;12.45;81.99;98636.73;116053;1203;137879;-58
2021/09/19 06:07:18;;;;;;;6.00;3.50;;;;;;;12.43;82.16;98634.13;116191;1205;22229;-59
2021/09/19 06:09:46;;;;;;;7.30;3.10;;;;;;;12.44;82.19;98629.26;116244;1203;22492;-58
2021/09/19 06:12:15;;;;;;;5.30;2.20;;;;;;;12.47;82.08;98624.64;116042;1203;138736;-58
2021/09/19 06:15:04;;;;;;;1.90;1.70;;;;;;;12.48;82.01;98628.84;116208;1203;22348;-59
2021/09/19 06:17:59;;;;;;;2.50;1.50;;;;;;;12.52;81.91;98625.29;116063;1203;137544;-58
2021/09/19 06:20:27;;;;;;;3.50;1.30;;;;;;;12.57;82.07;98623.86;116167;1204;22314;-59
2021/09/19 06:23:15;;;;;;;4.10;1.40;;;;;;;12.66;82.34;98623.30;116026;1203;137546;-58
2021/09/19 06:25:44;;;;;;;1.20;1.10;;;;;;;12.74;81.98;98621.61;116169;1199;22302;-59
2021/09/19 06:28:12;;;;;;;1.90;1.10;;;;;;;12.79;81.59;98621.16;116144;1203;22207;-59
2021/09/19 06:30:40;;;;;;;4.50;1.30;;;;;;;12.83;81.78;98620.77;116108;1203;137367;-59
2021/09/19 06:33:09;;;;;;;1.90;1.50;;;;;;;12.87;81.84;98623.29;116500;1202;22345;-58
2021/09/19 06:35:40;;;;;;;2.50;1.60;;;;;;;12.96;81.70;98623.48;116386;1202;137924;-59
2021/09/19 06:38:09;;;;;;;2.40;1.80;;;;;;;12.99;81.38;98624.80;116438;1201;22345;-58
2021/09/19 06:40:57;;;;;;;1.60;1.00;;;;;;;13.01;81.36;98626.74;116238;1202;139242;-60
2021/09/19 06:43:26;;;;;;;2.00;1.10;;;;;;;13.03;81.16;98628.36;116464;1202;22355;-59
2021/09/19 06:45:55;;;;;;;1.10;1.00;;;;;;;13.04;80.57;98626.09;115087;1203;22465;-62
2021/09/19 06:48:24;;;;;;;3.50;1.00;;;;;;;13.00;80.23;98619.21;116209;1202;138306;-63
2021/09/19 06:50:52;;;;;;;1.50;1.10;;;;;;;12.98;80.44;98616.41;116531;1202;22422;-63
2021/09/19 06:53:20;;;;;;;3.40;1.30;;;;;;;12.98;80.39;98614.70;116313;1202;137423;-63
2021/09/19 06:55:49;;;;;;;1.70;1.10;;;;;;;13.00;80.54;98617.52;116422;1202;22256;-62
2021/09/19 06:58:18;;;;;;;1.30;1.20;;;;;;;12.97;80.42;98618.40;116463;1202;22324;-62
2021/09/19 07:00:46;;;;;;;3.30;1.50;;;;;;;12.92;80.42;98614.69;116263;1202;139205;-63
2021/09/19 07:03:15;;;;;;;1.90;1.70;;;;;;;12.87;80.74;98611.73;116429;1202;22339;-62
2021/09/19 07:05:43;;;;;;;1.80;1.60;;;;;;;12.85;81.24;98609.48;116377;1200;139173;-63
2021/09/19 07:08:11;;;;;;;1.90;1.80;;;;;;;12.83;81.59;98608.27;116519;1202;22297;-62
2021/09/19 07:10:59;;;;;;;1.50;1.40;;;;;;;12.84;82.10;98611.05;116365;1202;137987;-62
2021/09/19 07:13:27;;;;;;;3.20;2.00;;;;;;;12.85;82.28;98610.29;116482;1200;23458;-62
2021/09/19 07:16:15;;;;;;;1.60;1.50;;;;;;;12.89;82.23;98607.17;116452;1196;22376;-62
2021/09/19 07:18:43;;;;;;;1.60;1.30;;;;;;;12.91;82.16;98607.60;116356;1202;137847;-62
2021/09/19 07:21:31;;;;;;;2.20;1.30;;;;;;;12.96;82.34;98605.19;116359;1203;23227;-62
2021/09/19 07:24:00;;;;;;;1.60;1.50;;;;;;;13.02;81.85;98603.49;116357;1196;137672;-62
2021/09/19 07:26:29;;;;;;;1.60;1.30;;;;;;;13.05;81.63;98607.27;116724;1200;22463;-62
2021/09/19 07:28:58;;;;;;;3.10;1.60;;;;;;;13.13;81.84;98604.00;116621;1199;137423;-62
2021/09/19 07:31:26;;;;;;;1.70;1.30;;;;;;;13.25;81.54;98604.88;116715;1200;22337;-61
2021/09/19 07:33:54;;;;;;;2.30;1.90;;;;;;;13.34;81.28;98601.00;116851;1199;22222;-61
2021/09/19 07:36:27;;;;;;;2.50;1.80;;;;;;;13.46;80.89;98602.60;116632;1199;137977;-61
2021/09/19 07:38:57;;;;;;;2.60;2.00;;;;;;;13.58;80.21;98601.14;116660;1200;23624;-61
2021/09/19 07:41:25;;;;;;;5.40;1.90;;;;;;;13.68;79.54;98604.16;116657;1199;137538;-61
2021/09/19 07:43:53;;;;;;;2.90;1.90;;;;;;;13.77;79.61;98602.56;116730;1199;22378;-61
2021/09/19 07:46:21;;;;;;;4.20;1.90;;;;;;;13.84;78.63;98599.77;116863;1200;22792;-61
2021/09/19 07:48:50;;;;;;;2.90;1.90;;;;;;;13.88;78.55;98603.56;116696;1200;137200;-62
2021/09/19 07:51:19;;;;;;;5.50;2.10;;;;;;;13.91;78.62;98601.77;116867;1200;22367;-62
2021/09/19 07:53:48;;;;;;;3.10;2.30;;;;;;;13.96;78.58;98603.92;116716;1200;137688;-62
2021/09/19 07:56:16;;;;;;;4.10;2.40;;;;;;;14.00;78.55;98607.40;116778;1200;22179;-62
2021/09/19 07:58:44;;;;;;;2.70;2.50;;;;;;;14.02;78.50;98608.50;116740;1200;137584;-61
2021/09/19 08:01:12;;;;;;;4.40;2.50;;;;;;;14.03;78.54;98607.95;116692;1200;22231;-62
2021/09/19 08:03:41;;;;;;;5.60;3.30;;;;;;;14.00;78.64;98609.46;116899;1200;22286;-62
2021/09/19 08:06:09;;;;;;;4.80;3.10;;;;;;;13.98;78.75;98609.14;116696;1200;138364;-62
2021/09/19 08:08:39;;;;;;;3.30;2.90;;;;;;;13.96;79.10;98612.20;116873;1200;23692;-62
2021/09/19 08:11:08;;;;;;;5.10;3.30;;;;;;;13.96;79.33;98612.30;116685;1199;137712;-62
2021/09/19 08:13:36;;;;;;;3.60;3.30;;;;;;;13.96;79.40;98609.78;116858;1200;22203;-62
2021/09/19 08:16:04;;;;;;;6.90;4.00;;;;;;;13.94;79.37;98612.29;116685;1199;22872;-62
2021/09/19 08:18:33;;;;;;;6.30;3.30;;;;;;;13.91;79.56;98612.27;116684;1199;138381;-62
2021/09/19 08:21:02;;;;;;;8.80;3.70;;;;;;;13.89;79.78;98606.89;116846;1200;22305;-62
2021/09/19 08:23:30;;;;;;;5.30;3.30;;;;;;;13.86;80.11;98607.05;116773;1199;138752;-62
2021/09/19 08:25:58;;;;;;;5.80;3.80;;;;;;;13.85;80.28;98608.27;116868;1200;22315;-62
2021/09/19 08:28:26;;;;;;;5.30;3.40;;;;;;;13.85;80.53;98600.35;116859;1199;22254;-62
2021/09/19 08:31:08;;;;;;;4.30;3.70;;;;;;;13.83;80.81;98597.43;116750;1200;138036;-62
2021/09/19 08:33:36;;;;;;;10.10;4.10;;;;;;;13.81;81.14;98597.46;116898;1200;22285;-62
2021/09/19 08:36:05;;;;;;;4.80;4.10;;;;;;;13.79;81.41;98597.66;116702;1199;137715;-62
2021/09/19 08:38:33;;;;;;;7.20;4.40;;;;;;;13.77;81.66;98591.61;116675;1200;23215;-62
2021/09/19 08:41:02;;;;;;;5.80;4.80;;;;;;;13.76;81.98;98591.70;116697;1200;137645;-62
2021/09/19 08:43:35;;;;;;;5.40;4.40;;;;;;;13.78;82.27;98587.60;116872;1195;22154;-63
2021/09/19 08:46:04;;;;;;;6.00;4.40;;;;;;;13.82;82.54;98581.34;116731;1185;22361;-62
2021/09/19 08:48:34;;;;;;;8.70;4.40;;;;;;;13.89;82.72;98588.66;116487;1200;138193;-61
2021/09/19 08:51:03;;;;;;;8.80;5.00;;;;;;;13.95;82.67;98583.95;116792;1199;22456;-61
2021/09/19 08:53:32;;;;;;;8.10;5.20;;;;;;;14.01;82.52;98584.05;116639;1193;137493;-62
2021/09/19 08:56:02;;;;;;;10.60;4.90;;;;;;;14.07;82.66;98580.77;115278;1193;25120;-61
2021/09/19 08:58:30;;;;;;;8.10;4.90;;;;;;;14.15;82.68;98575.92;112573;1199;23011;-61
2021/09/19 09:01:00;;;;;;;6.50;4.80;;;;;;;14.25;82.76;98579.04;112351;1200;140368;-61
2021/09/19 09:03:29;;;;;;;6.90;5.20;;;;;;;14.34;82.54;98575.33;116730;1199;23062;-62
2021/09/19 09:06:00;;;;;;;7.50;4.80;;;;;;;14.43;82.48;98575.98;116614;1199;138080;-62
2021/09/19 09:08:32;;;;;;;6.50;5.50;;;;;;;14.52;82.02;98577.73;116685;1200;22235;-62
2021/09/19 09:11:05;;;;;;;7.90;5.30;;;;;;;14.59;81.66;98572.98;116622;1200;139358;-62
2021/09/19 09:13:41;;;;;;;6.40;5.10;;;;;;;14.65;81.55;98575.42;116747;1195;22496;-62
2021/09/19 09:16:17;;;;;;;7.50;5.70;;;;;;;14.71;81.52;98571.66;116731;1199;23170;-62
2021/09/19 09:18:53;;;;;;;6.70;4.70;;;;;;;14.79;81.14;98569.27;116604;1199;138053;-62
2021/09/19 09:21:26;;;;;;;6.00;5.40;;;;;;;14.88;80.99;98567.64;116798;1199;22788;-62
2021/09/19 09:23:59;;;;;;;5.70;4.90;;;;;;;14.98;80.44;98564.86;116623;1200;138120;-62
2021/09/19 09:26:34;;;;;;;8.20;5.40;;;;;;;15.04;80.27;98556.30;116718;1200;22334;-62
2021/09/19 09:29:05;;;;;;;6.70;5.20;;;;;;;15.10;79.82;98559.96;116662;1200;138046;-62
2021/09/19 09:31:39;;;;;;;5.70;4.70;;;;;;;15.13;79.55;98552.85;116595;1200;22327;-62
2021/09/19 09:34:13;;;;;;;6.90;5.00;;;;;;;15.19;79.03;98552.27;116770;1199;23124;-62
2021/09/19 09:36:51;;;;;;;6.30;5.10;;;;;;;15.24;79.00;98553.86;116628;1199;137596;-63
2021/09/19 09:39:36;;;;;;;7.30;4.90;;;;;;;15.28;78.79;98549.77;116706;1200;22334;-62
2021/09/19 09:42:15;;;;;;;7.70;5.30;;;;;;;15.32;78.86;98551.93;116482;1200;137926;-63
2021/09/19 09:44:49;;;;;;;6.20;5.30;;;;;;;15.38;78.82;98549.73;116636;1199;22353;-63
2021/09/19 09:47:19;;;;;;;6.40;4.90;;;;;;;15.46;79.33;98551.25;116676;1199;138957;-63
2021/09/19 09:49:49;;;;;;;5.60;5.10;;;;;;;15.58;78.95;98550.71;116751;1199;23144;-63
2021/09/19 09:52:34;;;;;;;9.60;5.40;;;;;;;15.67;78.43;98544.19;116777;1199;22235;-63
2021/09/19 09:55:11;;;;;;;7.60;5.00;;;;;;;15.72;78.32;98540.98;116615;1192;137445;-63
2021/09/19 09:58:07;;;;;;;8.20;6.20;;;;;;;15.73;77.84;98537.13;116604;1200;22321;-63
2021/09/19 10:00:37;;;;;;;7.10;5.90;;;;;;;15.71;77.35;98534.67;116605;1193;138631;-63
2021/09/19 10:03:05;;;;;;;6.40;4.90;;;;;;;15.67;77.11;98540.66;116646;1200;22321;-63
2021/09/19 10:05:34;;;;;;;7.20;5.40;;;;;;;15.60;76.54;98537.41;116515;1199;140423;-63
2021/09/19 10:08:03;;;;;;;9.00;5.70;;;;;;;15.52;77.39;98536.20;116758;1199;22298;-64
2021/09/19 10:10:32;;;;;;;8.50;6.40;;;;;;;15.45;78.10;98543.83;116724;1199;22303;-63
2021/09/19 10:13:01;;;;;;;8.00;6.00;;;;;;;15.39;79.45;98542.51;116565;1199;137977;-64
2021/09/19 10:15:49;;;;;;;12.70;6.70;;;;;;;15.30;79.99;98553.31;116642;1186;22757;-64
2021/09/19 10:18:17;;;;;;;9.20;6.40;;;;;;;15.34;80.98;98554.44;116693;1199;138168;-64
2021/09/19 10:21:05;;;;;;;7.80;6.00;;;;;;;15.44;81.49;98555.83;116727;1199;22157;-63
2021/09/19 10:23:33;;;;;;;7.30;5.70;;;;;;;15.52;81.03;98559.02;116520;1200;140043;-62
2021/09/19 10:26:20;;;;;;;6.10;5.20;;;;;;;15.62;80.68;98551.77;116653;1200;23211;-63
2021/09/19 10:28:59;;;;;;;5.60;5.10;;;;;;;15.71;80.40;98556.35;116567;1200;138159;-62
2021/09/19 10:31:30;;;;;;;5.50;5.00;;;;;;;15.78;79.82;98561.61;116767;1199;22391;-63
2021/09/19 10:34:06;;;;;;;5.50;3.60;;;;;;;15.83;79.37;98563.63;116733;1199;22327;-62
2021/09/19 10:36:52;;;;;;;4.00;3.20;;;;;;;15.86;78.38;98568.27;116558;1199;138035;-63
2021/09/19 10:39:26;;;;;;;3.40;3.10;;;;;;;15.84;77.71;98567.77;116736;1199;23479;-62
2021/09/19 10:42:19;;;;;;;3.20;2.40;;;;;;;15.83;77.32;98570.93;116527;1200;137695;-63
2021/09/19 10:44:50;;;;;;;1.90;1.80;;;;;;;15.82;77.23;98568.11;116680;1200;23489;-62
2021/09/19 10:47:25;;;;;;;1.40;1.30;;;;;;;15.84;76.82;98571.52;116594;1199;137803;-63
2021/09/19 10:50:24;;;;;;;1.60;1.20;;;;;;;15.81;76.06;98574.11;116812;1186;22334;-63
2021/09/19 10:52:56;;;;;;;;;;;;;;;15.80;75.54;98580.86;116600;1199;138454;-63
2021/09/19 10:55:29;;;;;;;1.50;1.40;;;;;;;15.77;75.47;98578.61;116681;1200;22443;-61
2021/09/19 10:58:13;;;;;;;1.80;1.50;;;;;;;15.75;75.45;98581.62;116785;1199;23055;-61
2021/09/19 11:00:44;;;;;;;2.10;1.60;;;;;;;15.71;75.02;98580.34;116481;1194;137963;-61
2021/09/19 11:03:25;;;;;;;3.50;2.10;;;;;;;15.65;74.69;98583.93;116775;1199;22345;-61
2021/09/19 11:05:54;;;;;;;1.30;1.20;;;;;;;15.57;74.15;98585.59;116632;1199;137770;-61
2021/09/19 11:08:22;;;;;;;1.40;1.30;;;;;;;15.48;73.78;98586.02;116589;1200;23438;-61
2021/09/19 11:11:10;;;;;;;2.90;1.80;;;;;;;15.39;73.89;98586.42;116508;1201;139007;-61
2021/09/19 11:13:41;;;;;;;3.10;1.70;;;;;;;15.33;73.67;98588.20;116681;1200;23096;-63
2021/09/19 11:16:17;;;;;;;1.90;1.60;;;;;;;15.30;73.75;98584.95;116793;1200;23536;-61
2021/09/19 11:18:47;;;;;;;2.60;1.80;;;;;;;15.27;73.78;98588.43;116606;1200;137983;-61
2021/09/19 11:21:20;;;;;;;3.40;1.50;;;;;;;15.25;74.01;98592.55;116746;1199;23182;-61
2021/09/19 11:24:11;;;;;;;2.10;1.40;;;;;;;15.22;74.00;98592.88;116593;1200;138439;-62
2021/09/19 11:26:51;;;;;;;1.90;1.30;;;;;;;15.17;73.71;98595.73;116601;1200;22334;-62
2021/09/19 11:29:24;;;;;;;2.40;1.10;;;;;;;15.12;73.49;98595.69;116598;1199;138866;-62
2021/09/19 11:31:57;;;;;;;1.70;1.20;;;;;;;15.08;73.39;98602.31;116712;1200;22251;-61
2021/09/19 11:34:35;;;;;;;2.00;1.10;;;;;;;15.01;73.53;98605.06;116692;1200;22376;-61
2021/09/19 11:37:03;;;;;;;1.70;1.10;;;;;;;14.97;73.83;98604.49;116473;1200;137494;-61
2021/09/19 11:39:33;;;;;;;2.00;1.20;;;;;;;14.96;73.99;98601.83;116692;1193;22806;-62
2021/09/19 11:42:08;;;;;;;1.20;1.00;;;;;;;14.92;74.00;98599.23;116636;1193;137985;-60
2021/09/19 11:44:37;;;;;;;2.70;1.20;;;;;;;14.87;74.27;98600.64;116706;1199;22798;-62
2021/09/19 11:47:05;;;;;;;2.00;1.30;;;;;;;14.84;74.56;98603.37;116564;1199;138186;-61